Time;durP1;ratioP1;P1;durP2;ratioP2;P2;SDS_P1;SDS_P2;PMS_P1;PMS_P2;Temp;Humidity;BMP_temperature;BMP_pressure;BME280_temperature;BME280_humidity;BME280_pressure;Samples;Min_cycle;Max_cycle;Signal;HPM_P1;HPM_P2
2021/05/07 00:02:17;;;;;;;3.95;0.80;;;;;;;8.92;81.71;94478.81;5030215;28;20068;-67
2021/05/07 00:04:43;;;;;;;4.97;0.80;;;;;;;9.06;81.33;94466.22;5028651;28;20057;-66
2021/05/07 00:07:08;;;;;;;1.83;0.60;;;;;;;9.21;80.14;94456.22;5028070;28;20116;-66
2021/05/07 00:09:33;;;;;;;1.38;0.50;;;;;;;9.10;79.88;94469.00;5028535;28;20029;-66
2021/05/07 00:11:59;;;;;;;1.58;0.50;;;;;;;8.96;79.54;94455.91;5028217;28;20559;-65
2021/05/07 00:14:24;;;;;;;1.13;0.32;;;;;;;8.99;78.03;94470.41;5030222;28;20100;-66
2021/05/07 00:16:54;;;;;;;0.75;0.20;;;;;;;8.87;77.92;94455.09;5043077;28;20057;-67
2021/05/07 00:19:19;;;;;;;0.93;0.35;;;;;;;8.71;78.12;94438.06;5026945;28;20034;-66
2021/05/07 00:21:45;;;;;;;0.60;0.40;;;;;;;8.84;80.12;94461.00;5026746;28;20033;-67
2021/05/07 00:24:10;;;;;;;0.98;0.50;;;;;;;8.81;80.01;94459.75;5028301;28;20033;-66
2021/05/07 00:26:36;;;;;;;1.50;0.80;;;;;;;8.52;81.16;94455.00;5045254;28;20078;-67
2021/05/07 00:29:02;;;;;;;0.55;0.50;;;;;;;8.81;79.74;94462.41;5043390;28;20034;-67
2021/05/07 00:31:28;;;;;;;2.70;0.70;;;;;;;9.08;79.26;94444.66;5028011;28;20037;-67
2021/05/07 00:33:53;;;;;;;1.05;0.60;;;;;;;9.23;78.90;94473.41;5028230;28;20045;-66
2021/05/07 00:36:19;;;;;;;1.00;0.60;;;;;;;9.06;80.57;94460.91;5028131;28;20049;-67
2021/05/07 00:38:44;;;;;;;2.05;0.55;;;;;;;9.10;80.28;94464.47;5027937;28;20022;-65
2021/05/07 00:41:09;;;;;;;0.60;0.40;;;;;;;9.19;79.79;94451.22;5029955;28;20149;-66
2021/05/07 00:43:38;;;;;;;0.77;0.30;;;;;;;8.75;81.25;94453.06;5028278;28;20044;-66
2021/05/07 00:46:03;;;;;;;1.25;0.40;;;;;;;8.47;82.87;94457.78;5027995;28;20045;-67
2021/05/07 00:48:29;;;;;;;0.47;0.38;;;;;;;9.00;82.12;94458.69;5027773;28;20072;-66
2021/05/07 00:50:54;;;;;;;1.88;0.45;;;;;;;9.18;81.22;94443.59;5026612;28;20029;-66
2021/05/07 00:53:20;;;;;;;0.52;0.40;;;;;;;9.18;80.52;94459.50;5029768;28;20033;-66
2021/05/07 00:55:46;;;;;;;2.35;0.30;;;;;;;9.31;80.13;94451.38;5027860;28;20073;-67
2021/05/07 00:58:11;;;;;;;1.50;0.50;;;;;;;9.23;80.64;94459.34;5027721;28;20075;-66
2021/05/07 01:00:37;;;;;;;1.20;0.38;;;;;;;9.31;80.39;94469.19;5027808;28;20088;-66
2021/05/07 01:03:03;;;;;;;0.63;0.20;;;;;;;9.17;81.04;94471.22;5028865;28;20048;-66
2021/05/07 01:05:29;;;;;;;0.60;0.25;;;;;;;9.08;81.02;94456.06;5033451;28;20091;-67
2021/05/07 01:07:55;;;;;;;1.10;0.20;;;;;;;9.44;79.65;94438.28;5031404;28;20061;-67
2021/05/07 01:10:22;;;;;;;3.28;0.40;;;;;;;9.61;79.42;94444.34;5031462;28;20034;-67
2021/05/07 01:12:48;;;;;;;1.70;0.25;;;;;;;9.70;79.33;94444.34;5031162;28;20068;-66
2021/05/07 01:15:23;;;;;;;0.30;0.30;;;;;;;9.66;79.01;94458.56;5029941;28;20037;-65
2021/05/07 01:17:54;;;;;;;1.80;0.40;;;;;;;9.52;79.17;94453.41;5031112;28;20036;-67
2021/05/07 01:20:22;;;;;;;3.25;0.50;;;;;;;9.68;79.50;94451.06;5033090;28;20026;-66
2021/05/07 01:22:51;;;;;;;0.32;0.25;;;;;;;9.75;78.77;94462.00;5029533;28;20046;-66
2021/05/07 01:25:18;;;;;;;0.50;0.30;;;;;;;9.44;79.26;94456.84;5031335;28;20033;-67
2021/05/07 01:27:47;;;;;;;0.73;0.50;;;;;;;9.53;79.25;94455.00;5031317;28;20133;-66
2021/05/07 01:30:21;;;;;;;0.50;0.28;;;;;;;9.55;79.43;94458.09;5031341;28;20037;-66
2021/05/07 01:32:47;;;;;;;1.38;0.50;;;;;;;9.74;78.77;94458.56;5030977;28;20079;-66
2021/05/07 01:35:23;;;;;;;0.82;0.38;;;;;;;9.23;79.83;94452.16;5033035;28;20021;-67
2021/05/07 01:37:52;;;;;;;0.32;0.22;;;;;;;9.61;79.45;94468.25;5030996;28;20589;-66
2021/05/07 01:40:23;;;;;;;1.00;0.60;;;;;;;9.68;79.59;94477.63;5031320;28;20060;-67
2021/05/07 01:42:51;;;;;;;1.23;0.82;;;;;;;9.07;80.88;94478.38;5030806;28;20042;-68
2021/05/07 01:45:18;;;;;;;1.25;0.50;;;;;;;9.26;80.90;94464.81;5030894;28;20037;-67
2021/05/07 01:47:46;;;;;;;0.93;0.47;;;;;;;9.50;80.59;94466.22;5032560;28;20033;-64
2021/05/07 01:50:15;;;;;;;2.78;0.43;;;;;;;9.27;81.38;94471.69;5031225;28;20517;-66
2021/05/07 01:52:40;;;;;;;1.23;0.50;;;;;;;9.36;80.32;94467.16;5030581;28;20048;-65
2021/05/07 01:55:08;;;;;;;1.27;0.40;;;;;;;9.49;79.75;94473.41;5046028;28;20076;-66
2021/05/07 01:57:35;;;;;;;2.13;0.50;;;;;;;9.51;78.99;94473.09;5030594;28;20048;-67
2021/05/07 02:00:01;;;;;;;1.40;0.38;;;;;;;9.01;80.04;94431.88;5030903;28;20030;-67
2021/05/07 02:02:26;;;;;;;2.17;0.50;;;;;;;9.13;80.95;94481.66;5032472;28;20030;-67
2021/05/07 02:04:52;;;;;;;1.50;0.50;;;;;;;9.36;80.58;94480.41;5030750;28;20146;-68
2021/05/07 02:07:18;;;;;;;5.50;0.60;;;;;;;8.96;81.45;94477.13;5029800;28;20063;-66
2021/05/07 02:09:44;;;;;;;2.28;0.70;;;;;;;8.87;81.37;94464.91;5029776;28;20391;-66
2021/05/07 02:12:10;;;;;;;1.00;0.60;;;;;;;8.97;81.10;94486.63;5030485;28;20084;-67
2021/05/07 02:14:36;;;;;;;11.88;0.90;;;;;;;8.87;81.43;94497.53;5031329;28;20148;-66
2021/05/07 02:17:02;;;;;;;1.30;0.65;;;;;;;9.25;80.22;94495.09;5028656;28;20052;-67
2021/05/07 02:19:28;;;;;;;1.95;0.63;;;;;;;8.85;80.86;94486.44;5030140;28;20121;-67
2021/05/07 02:21:53;;;;;;;2.05;0.50;;;;;;;9.03;80.33;94471.34;5030262;28;20125;-69
2021/05/07 02:24:19;;;;;;;1.20;0.68;;;;;;;8.88;80.80;94493.00;5045712;28;20392;-65
2021/05/07 02:26:44;;;;;;;1.50;0.55;;;;;;;9.18;79.73;94468.25;5047151;28;20033;-65
2021/05/07 02:29:09;;;;;;;2.30;0.77;;;;;;;9.33;78.83;94475.75;5030617;28;20045;-66
2021/05/07 02:31:35;;;;;;;1.85;0.65;;;;;;;9.51;79.25;94487.13;5029662;28;20411;-66
2021/05/07 02:34:01;;;;;;;5.00;0.70;;;;;;;9.25;78.46;94478.38;5030083;28;20502;-66
2021/05/07 02:36:26;;;;;;;2.33;0.63;;;;;;;9.11;78.35;94489.16;5030038;28;20116;-66
2021/05/07 02:38:52;;;;;;;1.60;0.70;;;;;;;9.30;79.04;94483.53;5029829;28;20029;-66
2021/05/07 02:41:17;;;;;;;2.25;0.43;;;;;;;9.26;78.42;94486.03;5031638;28;20024;-66
2021/05/07 02:43:42;;;;;;;2.35;0.60;;;;;;;8.82;78.99;94468.50;5029861;28;20068;-66
2021/05/07 02:46:08;;;;;;;1.02;0.40;;;;;;;8.75;79.95;94473.44;5029691;28;20045;-66
2021/05/07 02:48:33;;;;;;;0.85;0.50;;;;;;;8.83;79.76;94448.84;5029666;28;20436;-66
2021/05/07 02:50:58;;;;;;;2.97;0.50;;;;;;;8.49;81.03;94458.25;5029672;28;20029;-66
2021/05/07 02:53:24;;;;;;;0.95;0.50;;;;;;;8.66;80.71;94470.78;5031459;28;20021;-66
2021/05/07 02:55:49;;;;;;;1.88;0.70;;;;;;;8.52;81.09;94470.91;5029589;28;20071;-66
2021/05/07 02:58:15;;;;;;;1.63;0.50;;;;;;;8.38;81.62;94480.03;5029508;28;20059;-66
2021/05/07 03:00:40;;;;;;;1.60;0.73;;;;;;;8.44;81.48;94465.56;5029495;28;20431;-66
2021/05/07 03:03:06;;;;;;;1.30;0.30;;;;;;;8.59;80.86;94481.81;5044655;28;20052;-66
2021/05/07 03:05:32;;;;;;;0.80;0.40;;;;;;;8.06;81.03;94421.75;5031186;28;20383;-66
2021/05/07 03:07:57;;;;;;;1.30;0.43;;;;;;;8.44;81.11;94465.56;5044518;28;20038;-65
2021/05/07 03:10:23;;;;;;;1.00;0.55;;;;;;;8.53;80.95;94476.97;5029457;28;20427;-67
2021/05/07 03:12:48;;;;;;;2.35;0.50;;;;;;;8.64;80.51;94474.81;5029091;28;20095;-67
2021/05/07 03:15:15;;;;;;;1.70;0.73;;;;;;;8.55;80.43;94472.16;5029313;28;20037;-67
2021/05/07 03:17:41;;;;;;;2.28;0.60;;;;;;;8.58;80.20;94468.88;5030673;28;20547;-67
2021/05/07 03:20:07;;;;;;;1.10;0.50;;;;;;;8.52;79.73;94486.03;5029027;28;20048;-67
2021/05/07 03:22:32;;;;;;;2.42;0.47;;;;;;;8.75;79.59;94481.41;5044220;28;20464;-66
2021/05/07 03:24:58;;;;;;;1.13;0.35;;;;;;;8.99;79.17;94486.31;5029019;28;20129;-66
2021/05/07 03:27:23;;;;;;;0.90;0.50;;;;;;;8.73;79.62;94489.69;5028486;28;20033;-67
2021/05/07 03:29:49;;;;;;;1.38;0.43;;;;;;;8.80;79.48;94508.59;5029052;28;20104;-66
2021/05/07 03:32:14;;;;;;;2.47;0.63;;;;;;;8.78;78.61;94500.16;5030727;28;20022;-65
2021/05/07 03:34:39;;;;;;;1.75;0.45;;;;;;;8.71;79.79;94510.44;5028977;28;20679;-65
2021/05/07 03:37:05;;;;;;;3.45;0.75;;;;;;;8.83;79.77;94521.22;5028581;28;20040;-67
2021/05/07 03:39:30;;;;;;;1.95;0.60;;;;;;;8.92;79.40;94518.59;5028906;28;20103;-66
2021/05/07 03:41:56;;;;;;;2.35;0.70;;;;;;;8.71;81.11;94536.94;5028535;28;20155;-66
2021/05/07 03:44:21;;;;;;;1.95;1.05;;;;;;;8.88;80.79;94540.75;5046002;28;20041;-68
2021/05/07 03:46:47;;;;;;;3.20;0.80;;;;;;;8.64;81.54;94541.88;5028392;28;20049;-67
2021/05/07 03:49:12;;;;;;;1.35;0.63;;;;;;;8.29;83.83;94531.13;5027374;28;20094;-67
2021/05/07 03:51:37;;;;;;;4.07;0.90;;;;;;;7.84;85.57;94524.28;5028368;28;20416;-66
2021/05/07 03:54:04;;;;;;;3.75;1.00;;;;;;;7.67;87.48;94527.56;5043910;28;20090;-66
2021/05/07 03:56:29;;;;;;;5.53;1.10;;;;;;;7.50;89.28;94539.59;5030433;28;20033;-66
2021/05/07 03:58:55;;;;;;;1.65;0.63;;;;;;;7.07;90.13;94523.34;5028345;28;20123;-66
2021/05/07 04:01:21;;;;;;;4.60;0.52;;;;;;;6.94;90.51;94534.69;5028399;28;20522;-66
2021/05/07 04:03:47;;;;;;;6.25;1.48;;;;;;;6.75;92.26;94525.00;5028634;28;20036;-67
2021/05/07 04:06:17;;;;;;;6.28;1.77;;;;;;;6.72;92.53;94527.47;5028385;28;20391;-66
2021/05/07 04:08:44;;;;;;;2.50;0.43;;;;;;;6.50;92.79;94547.44;5030381;28;20029;-66
2021/05/07 04:13:42;;;;;;;4.15;1.05;;;;;;;6.44;94.12;94538.00;5028382;28;20126;-66
2021/05/07 04:16:09;;;;;;;1.45;0.95;;;;;;;6.58;92.86;94542.53;5028125;28;20452;-68
2021/05/07 04:18:35;;;;;;;2.33;0.80;;;;;;;6.53;94.64;94545.25;5026745;28;20113;-66
2021/05/07 04:21:01;;;;;;;5.78;1.10;;;;;;;6.42;95.75;94563.16;5028310;28;20028;-67
2021/05/07 04:23:26;;;;;;;2.63;1.05;;;;;;;6.49;96.31;94556.41;5045321;28;20105;-67
2021/05/07 04:25:52;;;;;;;4.70;1.40;;;;;;;6.64;96.89;94559.84;5043373;28;20046;-66
2021/05/07 04:28:19;;;;;;;3.58;1.25;;;;;;;6.43;96.88;94554.94;5028040;28;20492;-67
2021/05/07 04:30:44;;;;;;;3.75;1.20;;;;;;;6.30;96.85;94526.66;5028340;28;20047;-67
2021/05/07 04:33:09;;;;;;;3.25;1.20;;;;;;;6.51;97.10;94542.91;5028102;28;20132;-67
2021/05/07 04:35:35;;;;;;;4.13;1.55;;;;;;;6.62;96.54;94546.16;5030082;28;20401;-69
2021/05/07 04:38:01;;;;;;;7.57;1.30;;;;;;;6.78;95.46;94550.06;5029248;28;20076;-68
2021/05/07 04:40:26;;;;;;;4.30;1.52;;;;;;;6.70;96.10;94538.31;5047085;28;20042;-67
2021/05/07 04:42:52;;;;;;;4.45;1.65;;;;;;;6.77;96.54;94551.16;5013518;28;20068;-67
2021/05/07 04:45:17;;;;;;;2.42;1.33;;;;;;;6.73;96.61;94539.59;5011147;28;20045;-67
2021/05/07 04:47:42;;;;;;;4.53;1.27;;;;;;;6.65;94.62;94551.63;5012720;28;20034;-66
2021/05/07 04:50:10;;;;;;;5.88;1.00;;;;;;;6.53;96.87;94572.47;5012043;28;20125;-68
2021/05/07 04:52:36;;;;;;;2.55;1.35;;;;;;;6.73;95.68;94566.81;5011876;28;20042;-67
2021/05/07 04:55:01;;;;;;;2.03;1.10;;;;;;;6.53;97.00;94580.38;5012197;28;20092;-67
2021/05/07 04:57:29;;;;;;;3.63;0.80;;;;;;;6.52;98.47;94594.69;5011829;28;20038;-68
2021/05/07 04:59:55;;;;;;;9.40;1.95;;;;;;;6.58;97.39;94596.16;5010858;28;20031;-67
2021/05/07 05:02:21;;;;;;;9.85;1.90;;;;;;;6.60;98.37;94607.22;5013760;28;20030;-67
2021/05/07 05:04:47;;;;;;;5.05;1.75;;;;;;;6.42;99.89;94603.56;5012088;28;20037;-68
2021/05/07 05:07:13;;;;;;;7.53;3.08;;;;;;;6.78;99.46;94598.44;5011713;28;20061;-67
2021/05/07 05:09:38;;;;;;;4.70;2.30;;;;;;;6.61;98.67;94595.59;5012006;28;20042;-68
2021/05/07 05:12:05;;;;;;;9.57;1.42;;;;;;;6.33;99.08;94593.94;5010299;28;20403;-67
2021/05/07 05:14:30;;;;;;;2.65;1.27;;;;;;;6.32;97.15;94597.66;5012344;28;20061;-68
2021/05/07 05:16:56;;;;;;;3.72;1.73;;;;;;;6.32;98.45;94622.22;5010108;28;20135;-67
2021/05/07 05:19:21;;;;;;;5.40;1.70;;;;;;;6.24;98.33;94618.41;5010224;28;20511;-68
2021/05/07 05:21:46;;;;;;;4.85;1.38;;;;;;;6.23;98.32;94635.28;5011215;28;20042;-68
2021/05/07 05:24:12;;;;;;;2.15;1.20;;;;;;;6.25;98.67;94630.53;5029581;28;20063;-67
2021/05/07 05:26:37;;;;;;;5.97;1.38;;;;;;;6.31;98.76;94641.78;5032881;28;20034;-66
2021/05/07 05:29:03;;;;;;;1.95;1.40;;;;;;;6.56;98.66;94643.25;5030837;28;20486;-65
2021/05/07 05:31:28;;;;;;;4.97;1.63;;;;;;;6.39;98.54;94630.56;5030048;28;20040;-66
2021/05/07 05:33:54;;;;;;;5.20;1.85;;;;;;;6.37;98.64;94642.50;5031208;28;20037;-66
2021/05/07 05:36:21;;;;;;;6.25;1.92;;;;;;;6.52;97.24;94655.44;5030997;28;20047;-66
2021/05/07 05:38:46;;;;;;;4.55;2.00;;;;;;;6.58;97.68;94650.88;5029768;28;20025;-66
2021/05/07 05:41:11;;;;;;;4.22;2.10;;;;;;;6.36;99.07;94660.19;5032758;28;20446;-66
2021/05/07 05:43:37;;;;;;;2.83;2.20;;;;;;;6.54;97.96;94665.72;5030995;28;20037;-69
2021/05/07 05:46:02;;;;;;;10.75;4.68;;;;;;;6.97;96.82;94671.59;5030852;28;20056;-70
2021/05/07 05:48:28;;;;;;;6.68;3.17;;;;;;;6.88;97.47;94682.06;5030063;28;20068;-75
2021/05/07 05:50:53;;;;;;;4.93;2.55;;;;;;;6.77;96.72;94670.88;5029465;28;20509;-63
2021/05/07 05:53:19;;;;;;;8.73;3.50;;;;;;;6.68;97.62;94627.69;5032708;28;20028;-70
2021/05/07 05:55:45;;;;;;;3.97;2.13;;;;;;;6.75;97.98;94680.94;5030563;28;20033;-73
2021/05/07 05:58:11;;;;;;;5.78;3.05;;;;;;;6.76;97.20;94669.31;5031686;28;20318;-73
2021/05/07 06:00:37;;;;;;;13.13;3.15;;;;;;;7.05;95.89;94694.72;5030731;28;20040;-69
2021/05/07 06:03:03;;;;;;;3.35;2.67;;;;;;;6.95;97.64;94686.97;5030372;28;20026;-69
2021/05/07 06:05:28;;;;;;;6.20;2.97;;;;;;;6.82;97.33;94682.44;5017749;28;20026;-69
2021/05/07 06:07:54;;;;;;;6.18;2.95;;;;;;;7.05;96.21;94668.25;5030021;28;20076;-68
2021/05/07 06:10:21;;;;;;;5.68;3.20;;;;;;;7.17;97.26;94679.16;5030401;28;20068;-69
2021/05/07 06:12:53;;;;;;;4.82;3.03;;;;;;;7.59;95.54;94666.72;5030376;28;20037;-68
2021/05/07 06:15:20;;;;;;;4.28;2.10;;;;;;;7.82;93.89;94672.84;5029068;28;20069;-68
2021/05/07 06:17:46;;;;;;;3.90;2.35;;;;;;;7.86;92.48;94659.78;5030135;28;20037;-68
2021/05/07 06:20:14;;;;;;;2.92;1.33;;;;;;;7.61;90.03;94648.66;5047485;28;20072;-69
2021/05/07 06:22:40;;;;;;;2.00;1.80;;;;;;;8.27;91.06;94668.41;5030098;28;20041;-67
2021/05/07 06:25:12;;;;;;;4.70;1.40;;;;;;;8.33;88.94;94672.50;5029991;28;20539;-68
2021/05/07 06:27:38;;;;;;;2.38;1.25;;;;;;;7.85;91.08;94624.59;5045336;28;20045;-68
2021/05/07 06:30:13;;;;;;;2.22;1.05;;;;;;;8.32;88.35;94684.19;5030195;28;20395;-69
2021/05/07 06:32:38;;;;;;;3.17;1.65;;;;;;;8.91;88.20;94675.41;5030705;28;20057;-69
2021/05/07 06:35:05;;;;;;;1.13;0.82;;;;;;;8.80;84.65;94678.31;5045490;28;20553;-69
2021/05/07 06:37:30;;;;;;;1.52;1.00;;;;;;;8.99;85.69;94666.69;5029549;28;20547;-68
2021/05/07 06:39:56;;;;;;;1.75;1.02;;;;;;;9.15;85.89;94683.00;5029719;28;20052;-69
2021/05/07 06:42:21;;;;;;;1.25;0.80;;;;;;;9.69;86.63;94662.41;5028267;28;20036;-69
2021/05/07 06:44:46;;;;;;;2.08;1.10;;;;;;;10.26;87.16;94673.75;5029873;28;20059;-69
2021/05/07 06:47:12;;;;;;;1.50;0.70;;;;;;;10.26;84.49;94665.00;5046723;28;20594;-70
2021/05/07 06:49:38;;;;;;;2.53;0.73;;;;;;;10.65;83.57;94656.06;5045031;28;20045;-69
2021/05/07 06:52:04;;;;;;;1.10;0.50;;;;;;;11.11;83.85;94649.22;5027988;28;20116;-69
2021/05/07 06:54:29;;;;;;;0.63;0.50;;;;;;;10.91;78.88;94640.84;5029642;28;20037;-69
2021/05/07 06:56:56;;;;;;;0.68;0.57;;;;;;;11.50;81.26;94648.09;5028074;28;20442;-69
2021/05/07 06:59:23;;;;;;;1.40;0.60;;;;;;;11.54;80.13;94632.28;5031436;28;20541;-69
2021/05/07 07:01:48;;;;;;;0.50;0.45;;;;;;;11.04;79.90;94651.59;5028593;28;20059;-68
2021/05/07 07:04:14;;;;;;;0.40;0.40;;;;;;;11.60;79.66;94639.75;5029348;28;20483;-68
2021/05/07 07:06:39;;;;;;;0.57;0.30;;;;;;;11.88;80.36;94652.63;5029140;28;20045;-68
2021/05/07 07:09:05;;;;;;;0.82;0.40;;;;;;;11.87;76.26;94646.50;5029074;28;20045;-68
2021/05/07 07:11:30;;;;;;;0.30;0.30;;;;;;;11.25;75.59;94643.69;5030942;28;20425;-65
2021/05/07 07:13:55;;;;;;;0.85;0.60;;;;;;;11.50;78.36;94650.00;5029295;28;20503;-64
2021/05/07 07:16:21;;;;;;;0.50;0.30;;;;;;;11.99;79.66;94653.81;5029052;28;20061;-64
2021/05/07 07:18:46;;;;;;;0.52;0.28;;;;;;;11.40;74.86;94651.13;5029053;28;20088;-63
2021/05/07 07:21:11;;;;;;;0.63;0.30;;;;;;;10.18;76.63;94644.50;5027492;28;20029;-68
2021/05/07 07:23:37;;;;;;;0.70;0.40;;;;;;;10.38;77.19;94649.19;5046309;28;20067;-69
2021/05/07 07:26:05;;;;;;;0.65;0.47;;;;;;;10.85;77.16;94644.75;5029119;28;20041;-72
2021/05/07 07:28:32;;;;;;;0.68;0.20;;;;;;;10.92;78.86;94642.38;5028644;28;20553;-69
2021/05/07 07:30:57;;;;;;;1.80;0.70;;;;;;;10.75;75.67;94637.13;5028977;28;20392;-68
2021/05/07 07:33:23;;;;;;;2.13;0.60;;;;;;;10.84;76.45;94639.75;5028716;28;20045;-68
2021/05/07 07:35:49;;;;;;;0.80;0.40;;;;;;;10.91;77.33;94634.72;5027462;28;20033;-68
2021/05/07 07:38:14;;;;;;;0.98;0.60;;;;;;;11.31;79.72;94643.19;5029048;28;20028;-69
2021/05/07 07:40:39;;;;;;;3.28;0.60;;;;;;;11.34;79.71;94639.09;5028802;28;20434;-68
2021/05/07 07:43:05;;;;;;;1.20;0.50;;;;;;;11.48;80.40;94641.56;5028626;28;20030;-68
2021/05/07 07:45:30;;;;;;;3.72;0.77;;;;;;;9.88;80.51;94650.44;5028539;28;20053;-70
2021/05/07 07:47:56;;;;;;;1.52;0.63;;;;;;;9.98;84.79;94659.16;5028523;28;20495;-68
2021/05/07 07:50:21;;;;;;;4.03;0.70;;;;;;;10.03;81.21;94635.91;5030435;28;20032;-69
2021/05/07 07:52:46;;;;;;;2.72;1.17;;;;;;;8.69;85.13;94639.84;5028670;28;20065;-69
2021/05/07 07:55:12;;;;;;;2.67;0.82;;;;;;;8.10;89.06;94654.25;5028404;28;20041;-70
2021/05/07 07:57:38;;;;;;;5.93;1.13;;;;;;;8.23;90.45;94651.53;5028378;28;20095;-68
2021/05/07 08:00:05;;;;;;;7.97;2.03;;;;;;;8.14;93.16;94674.53;5028378;28;20045;-71
2021/05/07 08:02:30;;;;;;;1.45;1.00;;;;;;;7.37;92.03;94669.25;5030096;28;20463;-67
2021/05/07 08:04:56;;;;;;;15.57;3.33;;;;;;;6.58;97.98;94675.44;5028489;28;20088;-67
2021/05/07 08:07:21;;;;;;;3.22;2.63;;;;;;;6.32;99.90;94684.84;5028257;28;20034;-65
2021/05/07 08:09:47;;;;;;;7.78;3.88;;;;;;;6.78;98.02;94711.31;5028443;28;20040;-67
2021/05/07 08:12:12;;;;;;;4.05;2.05;;;;;;;6.09;99.39;94750.66;5028229;28;20680;-66
2021/05/07 08:14:38;;;;;;;2.83;1.75;;;;;;;5.78;98.69;94739.66;5030362;28;20095;-65
2021/05/07 08:17:04;;;;;;;2.97;1.02;;;;;;;5.63;97.79;94751.19;5028169;28;20048;-65
2021/05/07 08:19:29;;;;;;;7.28;1.88;;;;;;;6.22;96.97;94751.78;5028080;28;20072;-67
2021/05/07 08:21:55;;;;;;;1.10;1.00;;;;;;;5.72;96.65;94760.03;5042931;28;20582;-66
2021/05/07 08:24:21;;;;;;;1.58;1.48;;;;;;;5.99;94.75;94758.72;5043289;28;20026;-67
2021/05/07 08:26:47;;;;;;;9.05;1.65;;;;;;;5.65;97.03;94791.28;5028007;28;20029;-68
2021/05/07 08:29:12;;;;;;;9.18;2.67;;;;;;;6.05;96.61;94789.25;5045447;28;20175;-65
2021/05/07 08:31:38;;;;;;;1.92;1.70;;;;;;;5.60;98.46;94809.78;5028157;28;20042;-65
2021/05/07 08:34:04;;;;;;;7.82;3.15;;;;;;;5.91;98.57;94812.09;5026903;28;20049;-72
2021/05/07 08:36:29;;;;;;;2.47;1.23;;;;;;;5.32;98.35;94821.94;5043435;28;20353;-69
2021/05/07 08:38:55;;;;;;;8.10;3.45;;;;;;;5.44;100.00;94817.09;5028167;28;20029;-71
2021/05/07 08:41:20;;;;;;;4.70;3.85;;;;;;;5.59;100.00;94816.16;5045248;28;20128;-65
2021/05/07 08:43:46;;;;;;;6.78;3.58;;;;;;;5.62;100.00;94810.28;5028216;28;20111;-64
2021/05/07 08:46:12;;;;;;;4.93;2.55;;;;;;;5.10;100.00;94819.75;5027874;28;20447;-65
2021/05/07 08:48:39;;;;;;;3.90;1.70;;;;;;;4.95;100.00;94831.22;5027915;28;20037;-68
2021/05/07 08:51:05;;;;;;;5.13;2.08;;;;;;;4.77;100.00;94813.44;5043638;28;20068;-64
2021/05/07 08:53:31;;;;;;;9.70;2.63;;;;;;;5.06;100.00;94831.91;5029770;28;20025;-67
2021/05/07 08:56:02;;;;;;;10.27;2.60;;;;;;;4.95;100.00;94839.13;5043533;28;20175;-66
2021/05/07 08:58:27;;;;;;;7.70;2.28;;;;;;;5.08;100.00;94844.84;5027682;28;20118;-70
2021/05/07 09:00:53;;;;;;;5.85;1.40;;;;;;;5.38;100.00;94846.44;5028089;28;20136;-70
2021/05/07 09:03:19;;;;;;;2.38;1.90;;;;;;;5.51;98.90;94848.41;5043031;28;20471;-65
2021/05/07 09:05:44;;;;;;;2.30;2.10;;;;;;;5.59;97.75;94854.94;5027276;28;20029;-65
2021/05/07 09:08:09;;;;;;;1.95;1.85;;;;;;;5.54;98.34;94853.13;5028609;28;20022;-65
2021/05/07 09:10:40;;;;;;;2.60;1.80;;;;;;;6.28;96.66;94850.22;5026473;28;20076;-66
2021/05/07 09:13:09;;;;;;;5.18;3.05;;;;;;;6.91;94.13;94847.25;5027656;28;20041;-66
2021/05/07 09:15:37;;;;;;;2.28;1.80;;;;;;;7.49;91.73;94868.03;5027750;28;20487;-66
2021/05/07 09:18:02;;;;;;;0.90;0.90;;;;;;;6.51;91.86;94875.84;5027539;28;20059;-66
2021/05/07 09:20:41;;;;;;;1.10;0.85;;;;;;;7.81;92.31;94860.03;5029543;28;20026;-69
2021/05/07 09:23:12;;;;;;;0.80;0.80;;;;;;;7.33;89.84;94878.09;5026418;28;20065;-66
2021/05/07 09:25:39;;;;;;;0.63;0.60;;;;;;;6.60;90.45;94895.25;5031158;28;20037;-66
2021/05/07 09:28:16;;;;;;;1.50;1.10;;;;;;;6.74;91.13;94901.41;5031175;28;20447;-64
2021/05/07 09:30:42;;;;;;;0.95;0.80;;;;;;;6.23;91.41;94906.53;5031378;28;20037;-64
2021/05/07 09:33:13;;;;;;;0.98;0.98;;;;;;;6.36;92.50;94907.72;5029802;28;20116;-65
2021/05/07 09:35:39;;;;;;;0.70;0.55;;;;;;;6.12;92.90;94905.88;5033252;28;20032;-65
2021/05/07 09:38:12;;;;;;;0.88;0.70;;;;;;;6.42;91.24;94915.31;5030829;28;20034;-64
2021/05/07 09:40:39;;;;;;;0.50;0.32;;;;;;;6.18;90.92;94912.66;5030878;28;20037;-64
2021/05/07 09:43:08;;;;;;;1.23;0.75;;;;;;;6.63;92.45;94921.13;5030880;28;20065;-64
2021/05/07 09:45:35;;;;;;;1.15;0.75;;;;;;;6.40;90.67;94917.47;5030737;28;20124;-64
2021/05/07 09:48:00;;;;;;;0.88;0.60;;;;;;;6.71;92.22;94928.44;5030664;28;20048;-65
2021/05/07 09:50:38;;;;;;;1.10;1.00;;;;;;;7.24;88.77;94936.16;5031371;28;20472;-64
2021/05/07 09:53:14;;;;;;;0.82;0.60;;;;;;;6.91;89.24;94948.53;5030719;28;20037;-63
2021/05/07 09:55:41;;;;;;;0.82;0.82;;;;;;;6.61;90.78;94959.50;5030848;28;20076;-63
2021/05/07 09:58:06;;;;;;;0.75;0.60;;;;;;;6.57;90.30;94975.13;5029314;28;20033;-62
2021/05/07 10:00:32;;;;;;;0.30;0.30;;;;;;;6.38;90.47;94979.56;5030639;28;20034;-62
2021/05/07 10:02:58;;;;;;;0.40;0.40;;;;;;;6.39;91.61;94973.19;5029318;28;20024;-63
2021/05/07 10:05:24;;;;;;;0.70;0.60;;;;;;;6.34;93.97;94983.81;5032439;28;20032;-62
2021/05/07 10:07:50;;;;;;;1.90;0.32;;;;;;;6.51;93.54;94979.69;5030136;28;20037;-62
2021/05/07 10:10:16;;;;;;;0.60;0.52;;;;;;;7.30;89.82;94979.19;5029426;28;20033;-62
2021/05/07 10:12:45;;;;;;;0.88;0.43;;;;;;;7.77;87.73;94980.84;5030521;28;20117;-62
2021/05/07 10:15:11;;;;;;;0.35;0.35;;;;;;;7.81;88.49;94973.13;5028987;28;20557;-62
2021/05/07 10:17:47;;;;;;;0.40;0.40;;;;;;;7.58;88.87;94981.97;5030800;28;20046;-61
2021/05/07 10:20:25;;;;;;;0.45;0.40;;;;;;;6.86;88.76;94998.84;5030620;28;20128;-61
2021/05/07 10:22:50;;;;;;;0.40;0.40;;;;;;;7.29;89.48;94986.34;5030259;28;20033;-63
2021/05/07 10:25:19;;;;;;;0.57;0.45;;;;;;;7.34;87.66;94998.72;5030308;28;20045;-62
2021/05/07 10:27:49;;;;;;;0.98;0.40;;;;;;;7.45;88.08;95004.66;5030042;28;20033;-62
2021/05/07 10:30:40;;;;;;;0.30;0.30;;;;;;;7.62;87.42;95010.22;5028869;28;20037;-63
2021/05/07 10:33:18;;;;;;;0.52;0.32;;;;;;;7.13;89.58;95011.44;5028576;28;20053;-61
2021/05/07 10:35:54;;;;;;;0.60;0.30;;;;;;;7.02;88.02;95020.59;5031019;28;20025;-62
2021/05/07 10:38:20;;;;;;;0.40;0.40;;;;;;;7.19;86.43;95018.22;5030398;28;20137;-64
2021/05/07 10:41:10;;;;;;;0.82;0.30;;;;;;;7.39;86.43;95019.03;5029681;28;20090;-65
2021/05/07 10:43:44;;;;;;;1.17;0.65;;;;;;;7.96;88.00;95019.75;5028368;28;20045;-64
2021/05/07 10:46:21;;;;;;;0.40;0.40;;;;;;;7.89;86.04;95028.09;5030039;28;20487;-63
2021/05/07 10:48:53;;;;;;;0.80;0.70;;;;;;;8.12;84.78;95023.72;5029667;28;20038;-64
2021/05/07 10:51:20;;;;;;;0.35;0.35;;;;;;;8.28;82.75;95016.31;5029511;28;20450;-64
2021/05/07 10:53:45;;;;;;;0.65;0.65;;;;;;;7.80;83.10;95017.34;5029460;28;20028;-64
2021/05/07 10:56:19;;;;;;;0.60;0.60;;;;;;;7.52;84.30;95020.94;5031520;28;20030;-64
2021/05/07 10:58:45;;;;;;;0.60;0.60;;;;;;;7.55;83.25;95026.47;5029030;28;20061;-65
2021/05/07 11:01:22;;;;;;;0.90;0.90;;;;;;;8.41;85.63;95031.47;5029139;28;20475;-64
2021/05/07 11:04:05;;;;;;;0.73;0.73;;;;;;;8.49;80.88;95035.31;5029374;28;20037;-65
2021/05/07 11:07:00;;;;;;;0.60;0.60;;;;;;;8.76;77.92;95042.53;5027894;28;20057;-66
2021/05/07 11:09:29;;;;;;;1.00;1.00;;;;;;;7.97;78.85;95037.22;5029184;28;20099;-63
2021/05/07 11:12:02;;;;;;;1.10;1.10;;;;;;;8.00;81.58;95036.66;5028992;28;20029;-63
2021/05/07 11:14:27;;;;;;;2.75;1.30;;;;;;;7.75;82.71;95062.44;5031132;28;20021;-62
2021/05/07 11:16:53;;;;;;;1.50;1.40;;;;;;;7.81;80.96;95056.00;5027642;28;20049;-63
2021/05/07 11:19:24;;;;;;;1.20;1.10;;;;;;;7.41;81.74;95060.00;5027747;28;20037;-63
2021/05/07 11:22:08;;;;;;;1.60;1.50;;;;;;;7.91;81.30;95059.56;5028992;28;20384;-64
2021/05/07 11:24:36;;;;;;;1.58;1.48;;;;;;;8.41;82.32;95065.16;5028707;28;20100;-63
2021/05/07 11:27:27;;;;;;;1.58;1.48;;;;;;;7.80;80.38;95062.38;5028482;28;20030;-63
2021/05/07 11:29:58;;;;;;;2.15;1.98;;;;;;;8.36;78.75;95067.88;5029025;28;20063;-63
2021/05/07 11:32:25;;;;;;;2.08;1.98;;;;;;;9.23;79.49;95073.16;5030854;28;20030;-63
2021/05/07 11:34:55;;;;;;;2.25;1.70;;;;;;;8.29;76.25;95084.94;5028646;28;20668;-63
2021/05/07 11:37:22;;;;;;;2.38;2.17;;;;;;;7.73;76.35;95085.00;5028344;28;20095;-64
2021/05/07 11:39:57;;;;;;;2.47;2.05;;;;;;;7.29;78.00;95102.75;5028569;28;20096;-64
2021/05/07 11:42:47;;;;;;;2.72;2.53;;;;;;;7.34;75.71;95098.47;5028308;28;20041;-64
2021/05/07 11:45:18;;;;;;;2.42;2.33;;;;;;;7.01;78.89;95103.63;5022031;28;20115;-64